Time;durP1;ratioP1;P1;durP2;ratioP2;P2;SDS_P1;SDS_P2;PMS_P1;PMS_P2;Temp;Humidity;BMP_temperature;BMP_pressure;BME280_temperature;BME280_humidity;BME280_pressure;Samples;Min_cycle;Max_cycle;Signal;HPM_P1;HPM_P2
2022/08/28 00:02:23;;;;;;;4.80;2.50;;;;;;;;;;4973287;28;20476;-51
2022/08/28 00:04:49;;;;;;;7.43;3.03;;;;;;;;;;4972743;28;20431;-52
2022/08/28 00:07:15;;;;;;;8.90;2.63;;;;;;;;;;4972747;28;20441;-51
2022/08/28 00:09:41;;;;;;;6.87;2.20;;;;;;;;;;4954249;28;20437;-52
2022/08/28 00:12:07;;;;;;;4.00;2.70;;;;;;;;;;4972945;28;20456;-52
2022/08/28 00:14:33;;;;;;;7.97;3.17;;;;;;;;;;4970467;28;20487;-51
2022/08/28 00:16:59;;;;;;;6.20;2.53;;;;;;;;;;4972718;28;20444;-51
2022/08/28 00:19:25;;;;;;;7.03;3.67;;;;;;;;;;4972767;28;20424;-51
2022/08/28 00:21:52;;;;;;;5.93;2.60;;;;;;;;;;4972775;28;20418;-51
2022/08/28 00:24:18;;;;;;;7.37;3.17;;;;;;;;;;4972955;28;20464;-51
2022/08/28 00:29:30;;;;;;;14.20;3.57;;;;;;;;;;4972996;28;20935;-51
2022/08/28 00:31:56;;;;;;;6.90;2.70;;;;;;;;;;4972528;28;20491;-51
2022/08/28 00:34:22;;;;;;;6.37;2.50;;;;;;;;;;4972522;28;20512;-51
2022/08/28 00:36:48;;;;;;;3.47;2.97;;;;;;;;;;4972247;28;20480;-51
2022/08/28 00:39:14;;;;;;;8.43;3.63;;;;;;;;;;4970715;28;20851;-51
2022/08/28 00:41:41;;;;;;;10.53;3.77;;;;;;;;;;4972914;28;20416;-51
2022/08/28 00:44:07;;;;;;;8.70;4.20;;;;;;;;;;4971715;28;20887;-51
2022/08/28 00:46:33;;;;;;;7.20;3.30;;;;;;;;;;4972707;28;20407;-51
2022/08/28 00:48:59;;;;;;;5.30;3.37;;;;;;;;;;4970599;28;20417;-51
2022/08/28 00:54:11;;;;;;;9.87;3.67;;;;;;;;;;4959801;28;20964;-52
2022/08/28 00:56:37;;;;;;;12.10;3.80;;;;;;;;;;4976482;28;20474;-51
2022/08/28 00:59:06;;;;;;;8.93;3.57;;;;;;;;;;4960688;28;20398;-51
2022/08/28 01:01:32;;;;;;;9.10;3.67;;;;;;;;;;4964028;28;20416;-51
2022/08/28 01:04:00;;;;;;;5.10;3.50;;;;;;;;;;4975923;28;20471;-51
2022/08/28 01:06:26;;;;;;;11.90;3.80;;;;;;;;;;4974238;28;20476;-51
2022/08/28 01:08:53;;;;;;;10.87;3.70;;;;;;;;;;4975776;28;20413;-51
2022/08/28 01:11:19;;;;;;;7.67;3.90;;;;;;;;;;4976380;28;20394;-51
2022/08/28 01:13:47;;;;;;;5.50;3.37;;;;;;;;;;4975853;28;20919;-51
2022/08/28 01:16:14;;;;;;;6.40;4.40;;;;;;;;;;4976035;28;20487;-51
2022/08/28 01:18:41;;;;;;;10.70;3.43;;;;;;;;;;4975713;28;20464;-51
2022/08/28 01:21:25;;;;;;;8.90;3.40;;;;;;;;;;4976325;28;20440;-51
2022/08/28 01:23:55;;;;;;;5.77;3.67;;;;;;;;;;4976026;28;20543;-51
2022/08/28 01:26:21;;;;;;;9.13;3.93;;;;;;;;;;4975630;28;20499;-51
2022/08/28 01:28:48;;;;;;;11.50;4.20;;;;;;;;;;4975571;28;20455;-51
2022/08/28 01:31:15;;;;;;;7.37;3.83;;;;;;;;;;4974737;28;20440;-51
2022/08/28 01:33:42;;;;;;;7.60;3.60;;;;;;;;;;4961380;28;21097;-51
2022/08/28 01:36:09;;;;;;;10.73;4.20;;;;;;;;;;4975531;28;20479;-51
2022/08/28 01:38:35;;;;;;;10.07;3.97;;;;;;;;;;4975480;28;20852;-51
2022/08/28 01:41:01;;;;;;;9.50;3.93;;;;;;;;;;4975599;28;21101;-51
2022/08/28 01:43:30;;;;;;;6.73;3.80;;;;;;;;;;4975649;28;20445;-51
2022/08/28 01:46:00;;;;;;;18.17;3.80;;;;;;;;;;4975449;28;20512;-51
2022/08/28 01:48:27;;;;;;;7.53;4.30;;;;;;;;;;4975290;28;20903;-51
2022/08/28 01:50:54;;;;;;;11.30;4.13;;;;;;;;;;4975555;28;20398;-51
2022/08/28 01:53:24;;;;;;;6.40;3.90;;;;;;;;;;4975368;28;20430;-51
2022/08/28 01:55:50;;;;;;;13.93;5.43;;;;;;;;;;4975177;28;20866;-51
2022/08/28 01:58:17;;;;;;;11.77;5.13;;;;;;;;;;4972893;28;20459;-51
2022/08/28 02:00:43;;;;;;;5.10;3.63;;;;;;;;;;4975369;28;20754;-50
2022/08/28 02:03:09;;;;;;;12.27;3.80;;;;;;;;;;4975144;28;20464;-51
2022/08/28 02:05:35;;;;;;;8.20;4.37;;;;;;;;;;4974222;28;20424;-51
2022/08/28 02:08:03;;;;;;;10.30;4.90;;;;;;;;;;4975055;28;20425;-51
2022/08/28 02:10:30;;;;;;;11.20;4.80;;;;;;;;;;4975153;28;20408;-51
2022/08/28 02:12:56;;;;;;;8.33;4.73;;;;;;;;;;4974986;28;20398;-51
2022/08/28 02:15:24;;;;;;;9.60;4.40;;;;;;;;;;4974671;28;20924;-51
2022/08/28 02:17:50;;;;;;;8.50;4.70;;;;;;;;;;4975254;28;20416;-51
2022/08/28 02:20:16;;;;;;;14.80;4.43;;;;;;;;;;4974707;28;20402;-51
2022/08/28 02:22:42;;;;;;;5.93;3.77;;;;;;;;;;4973555;28;20429;-51
2022/08/28 02:25:09;;;;;;;8.27;4.10;;;;;;;;;;4974291;28;20409;-51
2022/08/28 02:27:35;;;;;;;9.23;4.60;;;;;;;;;;4974664;28;20938;-51
2022/08/28 02:30:02;;;;;;;9.13;4.40;;;;;;;;;;4974641;28;20423;-52
2022/08/28 02:32:28;;;;;;;13.97;5.63;;;;;;;;;;4974985;28;20454;-52
2022/08/28 02:34:54;;;;;;;10.30;4.77;;;;;;;;;;4974533;28;20450;-51
2022/08/28 02:37:22;;;;;;;8.63;4.47;;;;;;;;;;4974490;28;20427;-51
2022/08/28 02:39:48;;;;;;;8.30;4.40;;;;;;;;;;4973978;28;20396;-50
2022/08/28 02:42:14;;;;;;;10.03;4.43;;;;;;;;;;4974695;28;20405;-51
2022/08/28 02:44:41;;;;;;;9.70;5.03;;;;;;;;;;4974466;28;20631;-51
2022/08/28 02:47:07;;;;;;;9.93;4.00;;;;;;;;;;4974361;28;20443;-51
2022/08/28 02:49:33;;;;;;;5.93;4.00;;;;;;;;;;4973092;28;20415;-51
2022/08/28 02:51:59;;;;;;;10.07;4.13;;;;;;;;;;4974594;28;20433;-50
2022/08/28 02:54:25;;;;;;;11.77;4.40;;;;;;;;;;4974061;28;20452;-52
2022/08/28 02:56:52;;;;;;;7.90;4.27;;;;;;;;;;4974242;28;20843;-51
2022/08/28 02:59:18;;;;;;;9.00;4.87;;;;;;;;;;4971921;28;20404;-51
2022/08/28 03:01:44;;;;;;;5.67;4.23;;;;;;;;;;4974215;28;20403;-49
2022/08/28 03:04:10;;;;;;;12.60;3.70;;;;;;;;;;4974079;28;20457;-49
2022/08/28 03:06:36;;;;;;;12.67;4.53;;;;;;;;;;4973662;28;20444;-49
2022/08/28 03:09:03;;;;;;;10.50;4.40;;;;;;;;;;4973760;28;20394;-49
2022/08/28 03:11:29;;;;;;;9.60;3.70;;;;;;;;;;4974009;28;20457;-49
2022/08/28 03:13:55;;;;;;;14.40;4.10;;;;;;;;;;4973830;28;20831;-49
2022/08/28 03:16:21;;;;;;;8.70;4.60;;;;;;;;;;4973811;28;20419;-49
2022/08/28 03:18:47;;;;;;;9.37;5.10;;;;;;;;;;4973276;28;20400;-51
2022/08/28 03:21:13;;;;;;;10.53;4.33;;;;;;;;;;4973827;28;20429;-52
2022/08/28 03:23:39;;;;;;;11.77;4.70;;;;;;;;;;4972483;28;20463;-53
2022/08/28 03:26:07;;;;;;;8.33;4.03;;;;;;;;;;4973620;28;20537;-49
2022/08/28 03:28:39;;;;;;;10.93;5.27;;;;;;;;;;4973715;28;20911;-51
2022/08/28 03:31:05;;;;;;;10.43;4.87;;;;;;;;;;4973686;28;20931;-48
2022/08/28 03:33:32;;;;;;;7.63;4.17;;;;;;;;;;4973740;28;20401;-49
2022/08/28 03:35:58;;;;;;;9.63;3.93;;;;;;;;;;4973097;28;20469;-52
2022/08/28 03:38:24;;;;;;;14.93;4.93;;;;;;;;;;4973018;28;20479;-52
2022/08/28 03:40:51;;;;;;;13.23;4.27;;;;;;;;;;4973342;28;20508;-49
2022/08/28 03:43:18;;;;;;;8.40;5.00;;;;;;;;;;4972478;28;20456;-53
2022/08/28 03:46:10;;;;;;;12.27;4.40;;;;;;;;;;4973182;28;20409;-49
2022/08/28 03:48:37;;;;;;;11.07;4.60;;;;;;;;;;4970311;28;20882;-49
2022/08/28 03:51:07;;;;;;;8.90;5.00;;;;;;;;;;4973131;28;20395;-49
2022/08/28 03:53:33;;;;;;;11.23;5.27;;;;;;;;;;4973563;28;20403;-52
2022/08/28 03:55:59;;;;;;;11.83;4.87;;;;;;;;;;4973035;28;20437;-48
2022/08/28 03:58:25;;;;;;;15.83;4.60;;;;;;;;;;4973007;28;20395;-49
2022/08/28 04:00:51;;;;;;;8.43;4.43;;;;;;;;;;4972947;28;20394;-49
2022/08/28 04:03:18;;;;;;;12.53;4.60;;;;;;;;;;4973018;28;20945;-49
2022/08/28 04:05:45;;;;;;;13.00;5.00;;;;;;;;;;4972754;28;20452;-48
2022/08/28 04:08:16;;;;;;;6.60;4.40;;;;;;;;;;4972927;28;20880;-51
2022/08/28 04:10:42;;;;;;;11.43;4.93;;;;;;;;;;4972518;28;20468;-48
2022/08/28 04:13:09;;;;;;;7.80;4.77;;;;;;;;;;4972711;28;20398;-52
2022/08/28 04:15:35;;;;;;;11.90;5.07;;;;;;;;;;4970627;28;20448;-49
2022/08/28 04:18:01;;;;;;;8.30;4.53;;;;;;;;;;4972139;28;20495;-53
2022/08/28 04:20:27;;;;;;;9.63;4.33;;;;;;;;;;4972501;28;20465;-48
2022/08/28 04:22:53;;;;;;;11.17;4.47;;;;;;;;;;4972681;28;20423;-49
2022/08/28 04:25:19;;;;;;;15.60;5.17;;;;;;;;;;4972954;28;20387;-49
2022/08/28 04:27:45;;;;;;;9.57;4.53;;;;;;;;;;4972593;28;20420;-48
2022/08/28 04:30:12;;;;;;;14.87;4.27;;;;;;;;;;4970943;28;20754;-50
2022/08/28 04:32:38;;;;;;;7.80;3.80;;;;;;;;;;4972045;28;20413;-52
2022/08/28 04:35:05;;;;;;;16.17;4.43;;;;;;;;;;4972538;28;20479;-50
2022/08/28 04:37:31;;;;;;;8.13;4.33;;;;;;;;;;4972865;28;20427;-48
2022/08/28 04:39:57;;;;;;;13.63;4.83;;;;;;;;;;4971447;28;20404;-49
2022/08/28 04:42:23;;;;;;;11.30;4.33;;;;;;;;;;4972618;28;20500;-49
2022/08/28 04:44:49;;;;;;;12.50;4.63;;;;;;;;;;4970345;28;20552;-50
2022/08/28 04:47:15;;;;;;;10.10;5.53;;;;;;;;;;4972579;28;20442;-51
2022/08/28 04:49:41;;;;;;;8.73;4.60;;;;;;;;;;4972807;28;20721;-51
2022/08/28 04:52:07;;;;;;;10.53;5.10;;;;;;;;;;4972583;28;20392;-52
2022/08/28 04:54:33;;;;;;;14.57;6.10;;;;;;;;;;4972833;28;20679;-48
2022/08/28 04:57:00;;;;;;;8.17;4.67;;;;;;;;;;4972338;28;20455;-48
2022/08/28 04:59:26;;;;;;;9.00;3.80;;;;;;;;;;4972519;28;20396;-53
2022/08/28 05:01:52;;;;;;;6.97;3.70;;;;;;;;;;4972072;28;20429;-51
2022/08/28 05:04:18;;;;;;;7.13;3.60;;;;;;;;;;4971853;28;20456;-52
2022/08/28 05:06:45;;;;;;;8.00;3.90;;;;;;;;;;4971216;28;20938;-50
2022/08/28 05:09:11;;;;;;;8.80;4.13;;;;;;;;;;4972422;28;20397;-50
2022/08/28 05:11:37;;;;;;;16.47;5.23;;;;;;;;;;4972498;28;20410;-48
2022/08/28 05:14:04;;;;;;;7.27;3.67;;;;;;;;;;4971659;28;20936;-49
2022/08/28 05:16:30;;;;;;;10.70;4.30;;;;;;;;;;4972567;28;20512;-48
2022/08/28 05:18:59;;;;;;;7.00;4.53;;;;;;;;;;4972483;28;20909;-48
2022/08/28 05:21:25;;;;;;;10.00;4.30;;;;;;;;;;4972568;28;20758;-48
2022/08/28 05:23:55;;;;;;;7.03;3.73;;;;;;;;;;4972461;28;20800;-49
2022/08/28 05:26:21;;;;;;;11.20;4.47;;;;;;;;;;4972401;28;20418;-49
2022/08/28 05:28:47;;;;;;;12.70;4.60;;;;;;;;;;4972319;28;20412;-49
2022/08/28 05:31:17;;;;;;;8.97;4.30;;;;;;;;;;4971208;28;20397;-49
2022/08/28 05:33:46;;;;;;;9.37;4.30;;;;;;;;;;4972021;28;20401;-49
2022/08/28 05:36:12;;;;;;;15.73;4.43;;;;;;;;;;4972019;28;20560;-50
2022/08/28 05:38:39;;;;;;;9.93;4.03;;;;;;;;;;4972174;28;20389;-51
2022/08/28 05:41:05;;;;;;;8.00;4.40;;;;;;;;;;4973029;28;20405;-50
2022/08/28 05:43:32;;;;;;;9.47;4.20;;;;;;;;;;4975950;28;20477;-51
2022/08/28 05:45:59;;;;;;;18.37;4.87;;;;;;;;;;4975733;28;20429;-51
2022/08/28 05:48:30;;;;;;;9.43;3.70;;;;;;;;;;4975702;28;20405;-50
2022/08/28 05:50:57;;;;;;;9.83;4.50;;;;;;;;;;4975597;28;20515;-51
2022/08/28 05:53:24;;;;;;;8.83;4.30;;;;;;;;;;4975661;28;20407;-50
2022/08/28 05:55:50;;;;;;;9.90;4.00;;;;;;;;;;4975468;28;20487;-51
2022/08/28 05:58:30;;;;;;;13.30;4.50;;;;;;;;;;4973696;28;20411;-51
2022/08/28 06:01:02;;;;;;;8.97;4.40;;;;;;;;;;4975522;28;20459;-51
2022/08/28 06:03:28;;;;;;;7.43;4.60;;;;;;;;;;4975430;28;20423;-51
2022/08/28 06:05:55;;;;;;;8.07;4.37;;;;;;;;;;4975343;28;20915;-50
2022/08/28 06:08:22;;;;;;;5.70;3.80;;;;;;;;;;4975439;28;20901;-51
2022/08/28 06:10:49;;;;;;;12.17;4.47;;;;;;;;;;4975127;28;20389;-51
2022/08/28 06:13:15;;;;;;;7.67;3.90;;;;;;;;;;4975319;28;20433;-52
2022/08/28 06:15:42;;;;;;;11.20;4.00;;;;;;;;;;4975117;28;20504;-50
2022/08/28 06:18:08;;;;;;;8.60;4.97;;;;;;;;;;4975187;28;20385;-51
2022/08/28 06:20:41;;;;;;;6.50;4.20;;;;;;;;;;4974992;28;20413;-51
2022/08/28 06:23:07;;;;;;;7.47;4.63;;;;;;;;;;4972889;28;20434;-51
2022/08/28 06:25:40;;;;;;;11.30;3.90;;;;;;;;;;4974152;28;20425;-50
2022/08/28 06:28:06;;;;;;;15.43;4.03;;;;;;;;;;4973825;28;20556;-50
2022/08/28 06:30:35;;;;;;;12.67;4.43;;;;;;;;;;4974691;28;20420;-51
2022/08/28 06:33:02;;;;;;;9.10;4.10;;;;;;;;;;4975046;28;20464;-51
2022/08/28 06:35:28;;;;;;;13.77;3.77;;;;;;;;;;4974708;28;20437;-51
2022/08/28 06:37:54;;;;;;;6.60;3.43;;;;;;;;;;4974288;28;20435;-51
2022/08/28 06:40:20;;;;;;;6.10;3.03;;;;;;;;;;4974595;28;20416;-50
2022/08/28 06:42:46;;;;;;;9.07;3.60;;;;;;;;;;4974660;28;20419;-51
2022/08/28 06:45:12;;;;;;;6.07;3.50;;;;;;;;;;4974670;28;20404;-50
2022/08/28 06:47:38;;;;;;;10.23;3.90;;;;;;;;;;4974715;28;20502;-51
2022/08/28 06:50:04;;;;;;;12.73;4.33;;;;;;;;;;4974429;28;20511;-51
2022/08/28 06:52:30;;;;;;;6.30;3.93;;;;;;;;;;4974210;28;20787;-51
2022/08/28 06:54:56;;;;;;;6.00;3.50;;;;;;;;;;4973446;28;20922;-51
2022/08/28 06:57:24;;;;;;;13.47;4.03;;;;;;;;;;4973712;28;20459;-51
2022/08/28 06:59:50;;;;;;;11.20;3.47;;;;;;;;;;4974201;28;20415;-51
2022/08/28 07:02:17;;;;;;;6.50;3.90;;;;;;;;;;4974436;28;20793;-52
2022/08/28 07:04:43;;;;;;;8.67;3.43;;;;;;;;;;4974236;28;20459;-51
2022/08/28 07:07:10;;;;;;;10.13;3.47;;;;;;;;;;4974241;28;20428;-51
2022/08/28 07:09:36;;;;;;;10.40;3.57;;;;;;;;;;4974034;28;20897;-51
2022/08/28 07:12:02;;;;;;;9.73;3.47;;;;;;;;;;4974228;28;20411;-51
2022/08/28 07:14:28;;;;;;;13.17;3.70;;;;;;;;;;4974134;28;20964;-51
2022/08/28 07:16:54;;;;;;;5.17;3.40;;;;;;;;;;4972388;28;20595;-51
2022/08/28 07:19:20;;;;;;;13.30;2.87;;;;;;;;;;4974085;28;20408;-51
2022/08/28 07:21:47;;;;;;;6.13;3.03;;;;;;;;;;4973269;28;20434;-52
2022/08/28 07:24:13;;;;;;;7.27;3.33;;;;;;;;;;4973996;28;20532;-52
2022/08/28 07:26:40;;;;;;;11.30;3.03;;;;;;;;;;4973916;28;20446;-51
2022/08/28 07:29:07;;;;;;;8.53;2.73;;;;;;;;;;4974164;28;20398;-51
2022/08/28 07:31:32;;;;;;;9.97;2.67;;;;;;;;;;4973965;28;20484;-51
2022/08/28 07:33:58;;;;;;;7.80;2.93;;;;;;;;;;4973836;28;20452;-51
2022/08/28 07:36:26;;;;;;;7.70;3.20;;;;;;;;;;4973574;28;20452;-51
2022/08/28 07:38:52;;;;;;;7.07;2.70;;;;;;;;;;4973476;28;20896;-51
2022/08/28 07:41:19;;;;;;;7.40;2.50;;;;;;;;;;4973757;28;20906;-52
2022/08/28 07:46:37;;;;;;;9.50;3.23;;;;;;;;;;4952252;28;20449;-50
2022/08/28 07:49:03;;;;;;;4.10;2.17;;;;;;;;;;4973628;28;20405;-50
2022/08/28 07:51:33;;;;;;;12.40;2.40;;;;;;;;;;4969269;28;20925;-50
2022/08/28 07:54:00;;;;;;;5.87;2.43;;;;;;;;;;4958249;28;20433;-51
2022/08/28 07:56:28;;;;;;;7.30;2.80;;;;;;;;;;4954263;28;20481;-52
2022/08/28 07:58:55;;;;;;;4.87;2.60;;;;;;;;;;4956571;29;20420;-54
2022/08/28 08:01:21;;;;;;;7.50;2.50;;;;;;;;;;4953975;28;20842;-51
2022/08/28 08:03:47;;;;;;;13.43;2.90;;;;;;;;;;4951552;28;20461;-53
2022/08/28 08:06:14;;;;;;;5.03;2.70;;;;;;;;;;4954299;28;20432;-53
2022/08/28 08:08:41;;;;;;;6.27;2.70;;;;;;;;;;4954180;28;20485;-53
2022/08/28 08:11:19;;;;;;;5.70;2.60;;;;;;;;;;4954283;29;20430;-53
2022/08/28 08:13:46;;;;;;;5.97;2.60;;;;;;;;;;4954840;29;20441;-54
2022/08/28 08:16:13;;;;;;;3.67;2.33;;;;;;;;;;4961586;28;20452;-51
2022/08/28 08:18:40;;;;;;;6.13;2.40;;;;;;;;;;4974086;28;20405;-53
2022/08/28 08:21:08;;;;;;;6.37;2.60;;;;;;;;;;4975017;28;20409;-52
2022/08/28 08:23:35;;;;;;;4.97;2.67;;;;;;;;;;4974166;28;20463;-52
2022/08/28 08:26:02;;;;;;;4.40;2.10;;;;;;;;;;4975109;28;20421;-53
2022/08/28 08:28:29;;;;;;;14.37;5.87;;;;;;;;;;4974729;28;21168;-53
2022/08/28 08:31:05;;;;;;;4.97;2.33;;;;;;;;;;4973420;28;20902;-51
2022/08/28 08:33:31;;;;;;;6.70;2.70;;;;;;;;;;4973237;28;20412;-51
2022/08/28 08:35:57;;;;;;;3.77;2.63;;;;;;;;;;4973307;28;20445;-53
2022/08/28 08:38:23;;;;;;;11.00;2.50;;;;;;;;;;4973184;28;20401;-50
2022/08/28 08:40:50;;;;;;;6.10;2.27;;;;;;;;;;4973988;28;20472;-53
2022/08/28 08:43:17;;;;;;;7.67;2.43;;;;;;;;;;4974593;28;20453;-52
2022/08/28 08:45:44;;;;;;;5.77;2.30;;;;;;;;;;4972395;28;20479;-53
2022/08/28 08:48:13;;;;;;;6.17;2.67;;;;;;;;;;4973097;28;20912;-51
2022/08/28 08:50:40;;;;;;;4.23;2.03;;;;;;;;;;4973778;28;20411;-53
2022/08/28 08:53:09;;;;;;;7.50;2.20;;;;;;;;;;4974123;28;20464;-52
2022/08/28 08:55:41;;;;;;;3.53;1.70;;;;;;;;;;4972979;28;20456;-50
2022/08/28 08:58:26;;;;;;;4.03;2.40;;;;;;;;;;4973106;28;20397;-51
2022/08/28 09:01:02;;;;;;;5.10;2.40;;;;;;;;;;4966557;28;20412;-50
2022/08/28 09:03:37;;;;;;;14.73;2.93;;;;;;;;;;4973070;28;20456;-50
2022/08/28 09:06:04;;;;;;;5.13;3.00;;;;;;;;;;4971271;28;20763;-50
2022/08/28 09:08:30;;;;;;;9.83;2.83;;;;;;;;;;4973081;28;20893;-50
2022/08/28 09:11:01;;;;;;;5.00;2.20;;;;;;;;;;4972498;28;20405;-50
2022/08/28 09:13:30;;;;;;;4.80;2.40;;;;;;;;;;4972853;28;20182;-50
2022/08/28 09:15:56;;;;;;;5.20;2.53;;;;;;;;;;4973914;28;20535;-50
2022/08/28 09:18:22;;;;;;;4.63;2.50;;;;;;;;;;4975840;28;20971;-50
2022/08/28 09:20:52;;;;;;;7.83;2.60;;;;;;;;;;4976403;28;20400;-50
2022/08/28 09:23:18;;;;;;;5.90;2.13;;;;;;;;;;4975418;28;20461;-51
2022/08/28 09:25:44;;;;;;;5.57;2.60;;;;;;;;;;4973570;28;20766;-50
2022/08/28 09:28:13;;;;;;;4.37;2.23;;;;;;;;;;4976621;28;20455;-50
2022/08/28 09:30:40;;;;;;;5.17;2.00;;;;;;;;;;4976077;28;20623;-50
2022/08/28 09:33:06;;;;;;;5.57;2.17;;;;;;;;;;4976737;28;20436;-51
2022/08/28 09:35:33;;;;;;;3.57;2.30;;;;;;;;;;4976125;28;20451;-51
2022/08/28 09:38:16;;;;;;;9.10;2.40;;;;;;;;;;4976485;28;20412;-50
2022/08/28 09:43:28;;;;;;;6.27;2.70;;;;;;;;;;4976305;28;20455;-50
2022/08/28 09:46:00;;;;;;;2.70;2.03;;;;;;;;;;4975146;28;20452;-52
2022/08/28 09:48:42;;;;;;;7.43;2.50;;;;;;;;;;4975249;28;20436;-50
2022/08/28 09:51:08;;;;;;;6.60;2.00;;;;;;;;;;4976248;28;20448;-50
2022/08/28 09:53:56;;;;;;;5.93;2.20;;;;;;;;;;4976229;28;20417;-50
2022/08/28 09:56:22;;;;;;;4.00;2.27;;;;;;;;;;4975687;28;20432;-50
2022/08/28 09:58:55;;;;;;;6.90;2.37;;;;;;;;;;4975384;28;20783;-51
2022/08/28 10:01:20;;;;;;;4.40;2.97;;;;;;;;;;4975877;28;20174;-50
2022/08/28 10:04:03;;;;;;;7.90;2.67;;;;;;;;;;4975444;28;20556;-50
2022/08/28 10:06:32;;;;;;;5.97;2.30;;;;;;;;;;4975129;28;20433;-50
2022/08/28 10:09:05;;;;;;;9.00;2.20;;;;;;;;;;4975248;28;20409;-50
2022/08/28 10:11:34;;;;;;;4.43;2.20;;;;;;;;;;4975233;28;20416;-50
2022/08/28 10:14:18;;;;;;;3.90;2.00;;;;;;;;;;4975524;28;20441;-50
2022/08/28 10:16:53;;;;;;;7.77;2.47;;;;;;;;;;4974214;28;20815;-50
2022/08/28 10:19:35;;;;;;;5.70;2.60;;;;;;;;;;4974994;28;20412;-50
2022/08/28 10:22:10;;;;;;;2.60;1.80;;;;;;;;;;4975121;28;20409;-50
2022/08/28 10:24:36;;;;;;;8.23;2.23;;;;;;;;;;4975131;28;20455;-51
2022/08/28 10:27:26;;;;;;;5.03;2.80;;;;;;;;;;4974149;28;20421;-50
2022/08/28 10:29:52;;;;;;;3.23;2.03;;;;;;;;;;4975453;28;20500;-50
2022/08/28 10:32:36;;;;;;;4.10;2.20;;;;;;;;;;4974899;28;20495;-50
2022/08/28 10:35:10;;;;;;;5.30;2.30;;;;;;;;;;4975277;28;20897;-50
2022/08/28 10:37:37;;;;;;;6.33;2.10;;;;;;;;;;4975215;28;20556;-50
2022/08/28 10:40:13;;;;;;;6.03;2.77;;;;;;;;;;4974801;28;20412;-50
2022/08/28 10:42:42;;;;;;;5.47;1.63;;;;;;;;;;4975196;28;20400;-50
2022/08/28 10:45:23;;;;;;;13.40;2.43;;;;;;;;;;4975211;28;20461;-50
2022/08/28 10:47:52;;;;;;;7.50;2.10;;;;;;;;;;4974287;28;20458;-50
2022/08/28 10:50:21;;;;;;;5.23;2.30;;;;;;;;;;4975004;28;20398;-50
2022/08/28 10:52:51;;;;;;;3.10;1.93;;;;;;;;;;4974750;28;20779;-50
2022/08/28 10:55:21;;;;;;;5.30;1.80;;;;;;;;;;4974561;28;20419;-51
2022/08/28 10:57:50;;;;;;;5.37;2.10;;;;;;;;;;4974980;28;20779;-50
2022/08/28 11:00:19;;;;;;;5.63;1.93;;;;;;;;;;4974606;28;20405;-51
2022/08/28 11:02:48;;;;;;;4.63;2.03;;;;;;;;;;4974592;28;20908;-51
2022/08/28 11:05:14;;;;;;;6.83;2.33;;;;;;;;;;4975018;28;20453;-51
2022/08/28 11:07:43;;;;;;;11.73;2.53;;;;;;;;;;4974607;28;20423;-51
2022/08/28 11:10:15;;;;;;;3.50;2.27;;;;;;;;;;4974257;28;20665;-50
2022/08/28 11:12:42;;;;;;;3.80;2.20;;;;;;;;;;4974587;28;20440;-50
2022/08/28 11:15:37;;;;;;;4.50;1.67;;;;;;;;;;4973474;28;20787;-52
2022/08/28 11:18:26;;;;;;;3.00;1.93;;;;;;;;;;4973253;28;20463;-50
2022/08/28 11:21:10;;;;;;;2.83;2.10;;;;;;;;;;4967827;28;20460;-50
2022/08/28 11:23:44;;;;;;;2.87;2.00;;;;;;;;;;4974230;28;20994;-50
2022/08/28 11:26:12;;;;;;;3.67;1.87;;;;;;;;;;4974440;28;20433;-50
2022/08/28 11:28:46;;;;;;;4.53;1.70;;;;;;;;;;4973836;28;20397;-50
2022/08/28 11:31:12;;;;;;;2.77;1.80;;;;;;;;;;4974174;28;20955;-51
2022/08/28 11:33:41;;;;;;;2.80;2.00;;;;;;;;;;4974138;28;20404;-50
2022/08/28 11:36:20;;;;;;;5.60;2.10;;;;;;;;;;4973717;28;20449;-50
2022/08/28 11:38:54;;;;;;;4.97;2.00;;;;;;;;;;4973896;28;20413;-50
2022/08/28 11:41:21;;;;;;;4.43;1.80;;;;;;;;;;4972675;28;20411;-51
2022/08/28 11:43:52;;;;;;;5.00;2.50;;;;;;;;;;4973772;28;20467;-50
2022/08/28 11:46:26;;;;;;;3.80;1.80;;;;;;;;;;4971883;28;20533;-50
2022/08/28 11:48:54;;;;;;;6.57;1.90;;;;;;;;;;4971414;28;20439;-50
2022/08/28 11:51:29;;;;;;;2.37;1.53;;;;;;;;;;4972137;28;20421;-50
2022/08/28 11:54:18;;;;;;;5.50;2.20;;;;;;;;;;4973868;28;20412;-50
2022/08/28 11:56:53;;;;;;;4.40;2.20;;;;;;;;;;4968357;28;20491;-50
2022/08/28 11:59:19;;;;;;;3.27;1.63;;;;;;;;;;4973928;28;20463;-50
2022/08/28 12:01:45;;;;;;;6.70;2.00;;;;;;;;;;4973805;28;20400;-50
2022/08/28 12:04:16;;;;;;;10.77;2.30;;;;;;;;;;4973789;28;20216;-51
2022/08/28 12:06:51;;;;;;;2.80;1.93;;;;;;;;;;4973616;28;20460;-50
2022/08/28 12:09:26;;;;;;;6.13;1.93;;;;;;;;;;4973705;28;20404;-50
2022/08/28 12:11:54;;;;;;;7.50;1.90;;;;;;;;;;4973725;28;20412;-50
2022/08/28 12:14:20;;;;;;;2.97;1.67;;;;;;;;;;4972463;28;20463;-51
2022/08/28 12:16:58;;;;;;;5.17;1.80;;;;;;;;;;4973060;28;20452;-50
2022/08/28 12:19:30;;;;;;;3.17;1.67;;;;;;;;;;4972313;28;20436;-51
2022/08/28 12:21:57;;;;;;;5.90;1.97;;;;;;;;;;4973805;28;20417;-50
2022/08/28 12:24:23;;;;;;;4.87;2.07;;;;;;;;;;4973313;28;20586;-50
2022/08/28 12:26:53;;;;;;;4.83;1.93;;;;;;;;;;4973239;28;20428;-51
2022/08/28 12:29:25;;;;;;;2.53;1.80;;;;;;;;;;4973071;28;20464;-50
2022/08/28 12:32:13;;;;;;;4.83;2.17;;;;;;;;;;4973519;28;20881;-51
2022/08/28 12:34:42;;;;;;;2.37;2.00;;;;;;;;;;4973293;28;20401;-51
2022/08/28 12:37:27;;;;;;;6.50;1.73;;;;;;;;;;4973187;28;20873;-50
2022/08/28 12:39:54;;;;;;;7.50;1.97;;;;;;;;;;4973007;28;20805;-50
2022/08/28 12:42:22;;;;;;;9.60;1.97;;;;;;;;;;4973081;28;20411;-51
2022/08/28 12:44:49;;;;;;;5.30;1.80;;;;;;;;;;4971308;28;20452;-52
2022/08/28 12:47:17;;;;;;;4.47;2.00;;;;;;;;;;4972937;28;20535;-50
2022/08/28 12:49:44;;;;;;;4.67;1.53;;;;;;;;;;4972840;28;20401;-50
2022/08/28 12:52:20;;;;;;;6.70;1.93;;;;;;;;;;4977098;28;20488;-50
2022/08/28 12:54:48;;;;;;;3.20;1.90;;;;;;;;;;4976035;28;20436;-50
2022/08/28 12:57:19;;;;;;;2.20;1.90;;;;;;;;;;4976909;28;20932;-51
2022/08/28 12:59:46;;;;;;;3.27;1.70;;;;;;;;;;4977222;28;20401;-50
2022/08/28 13:02:12;;;;;;;3.13;1.93;;;;;;;;;;4976683;28;20448;-50
2022/08/28 13:04:44;;;;;;;4.70;2.47;;;;;;;;;;4977201;28;20448;-50
2022/08/28 13:07:15;;;;;;;2.33;1.90;;;;;;;;;;4976763;28;20443;-50
2022/08/28 13:09:47;;;;;;;2.27;1.73;;;;;;;;;;4976681;28;20456;-50
2022/08/28 13:12:18;;;;;;;6.47;2.23;;;;;;;;;;4976766;28;20409;-49
2022/08/28 13:14:45;;;;;;;3.73;1.83;;;;;;;;;;4976668;28;20455;-50
2022/08/28 13:17:12;;;;;;;3.40;1.50;;;;;;;;;;4974157;28;20539;-50
2022/08/28 13:19:39;;;;;;;4.30;2.00;;;;;;;;;;4976333;28;20405;-50
2022/08/28 13:22:07;;;;;;;2.03;1.67;;;;;;;;;;4976518;28;20413;-49
2022/08/28 13:24:36;;;;;;;4.03;1.80;;;;;;;;;;4976355;28;20469;-50
2022/08/28 13:27:02;;;;;;;4.43;1.63;;;;;;;;;;4974325;28;20449;-50
2022/08/28 13:29:28;;;;;;;2.63;1.50;;;;;;;;;;4975955;28;20416;-50
2022/08/28 13:31:55;;;;;;;5.40;1.87;;;;;;;;;;4976503;28;20392;-52
2022/08/28 13:34:25;;;;;;;3.43;1.90;;;;;;;;;;4976075;28;20433;-51
2022/08/28 13:36:52;;;;;;;6.00;1.90;;;;;;;;;;4975750;28;20447;-51
2022/08/28 13:39:19;;;;;;;4.40;1.57;;;;;;;;;;4975729;28;20901;-52
2022/08/28 13:41:46;;;;;;;2.53;1.60;;;;;;;;;;4975857;28;20405;-51
2022/08/28 13:44:29;;;;;;;3.10;1.80;;;;;;;;;;4975783;28;20455;-51
2022/08/28 13:46:55;;;;;;;3.10;2.20;;;;;;;;;;4974572;28;20448;-52
2022/08/28 13:49:22;;;;;;;1.50;1.40;;;;;;;;;;4975469;28;20405;-50
2022/08/28 13:51:48;;;;;;;4.17;1.70;;;;;;;;;;4975723;28;20488;-51
2022/08/28 13:54:14;;;;;;;3.10;1.70;;;;;;;;;;4975616;28;20448;-50
2022/08/28 13:56:40;;;;;;;4.43;1.50;;;;;;;;;;4975452;28;21027;-51
2022/08/28 13:59:06;;;;;;;3.20;1.37;;;;;;;;;;4975581;28;20701;-51
2022/08/28 14:04:17;;;;;;;5.40;1.87;;;;;;;;;;4975604;28;20455;-50
2022/08/28 14:06:43;;;;;;;5.20;1.80;;;;;;;;;;4975259;28;20428;-52
2022/08/28 14:09:14;;;;;;;2.43;1.70;;;;;;;;;;4975202;28;20750;-51
2022/08/28 14:11:43;;;;;;;2.50;1.50;;;;;;;;;;4975371;28;20802;-51
2022/08/28 14:14:09;;;;;;;2.90;1.63;;;;;;;;;;4975306;28;20912;-52
2022/08/28 14:16:35;;;;;;;4.80;2.70;;;;;;;;;;4973330;28;20508;-50
2022/08/28 14:19:04;;;;;;;2.23;1.43;;;;;;;;;;4974382;28;20437;-51
2022/08/28 14:21:34;;;;;;;4.23;2.20;;;;;;;;;;4975094;28;20924;-50
2022/08/28 14:24:00;;;;;;;1.93;1.53;;;;;;;;;;4975147;28;20568;-52
2022/08/28 14:26:27;;;;;;;1.83;1.67;;;;;;;;;;4974992;28;20484;-52
2022/08/28 14:28:53;;;;;;;4.27;1.90;;;;;;;;;;4974782;28;20415;-50
2022/08/28 14:31:19;;;;;;;3.67;1.50;;;;;;;;;;4975040;28;20500;-52
2022/08/28 14:33:45;;;;;;;2.83;1.37;;;;;;;;;;4975121;28;20911;-52
2022/08/28 14:36:19;;;;;;;6.60;1.47;;;;;;;;;;4974571;28;20468;-51
2022/08/28 14:38:46;;;;;;;3.67;1.50;;;;;;;;;;4974663;28;20948;-50
2022/08/28 14:41:13;;;;;;;2.77;1.83;;;;;;;;;;4974876;28;20440;-52
2022/08/28 14:43:39;;;;;;;3.50;1.73;;;;;;;;;;4974669;28;20514;-52
2022/08/28 14:46:05;;;;;;;2.23;1.57;;;;;;;;;;4974645;28;20457;-53
2022/08/28 14:48:31;;;;;;;2.00;1.50;;;;;;;;;;4972597;28;20429;-51
2022/08/28 14:51:00;;;;;;;3.57;1.60;;;;;;;;;;4974643;28;20408;-52
2022/08/28 14:53:26;;;;;;;3.50;1.30;;;;;;;;;;4975720;28;20409;-50
2022/08/28 14:55:52;;;;;;;2.67;1.80;;;;;;;;;;4975186;28;20425;-50
2022/08/28 14:58:18;;;;;;;2.87;1.40;;;;;;;;;;4974980;28;20409;-50
2022/08/28 15:00:49;;;;;;;4.97;1.80;;;;;;;;;;4974643;28;20416;-50
2022/08/28 15:03:15;;;;;;;7.07;1.80;;;;;;;;;;4974604;28;20420;-50